createdAt,value
2022-11-05T00:01:15.921Z,8.94
2022-11-05T00:04:07.760Z,8.96
2022-11-05T00:06:54.926Z,8.97
2022-11-05T00:09:29.332Z,8.99
2022-11-05T00:12:17.694Z,9.00
2022-11-05T00:15:04.649Z,8.98
2022-11-05T00:17:33.544Z,8.96
2022-11-05T00:20:02.851Z,8.93
2022-11-05T00:22:49.987Z,8.90
2022-11-05T00:25:19.530Z,8.88
2022-11-05T00:27:53.011Z,8.87
2022-11-05T00:30:25.126Z,8.87
2022-11-05T00:32:59.672Z,8.88
2022-11-05T00:35:28.602Z,8.87
2022-11-05T00:37:56.871Z,8.84
2022-11-05T00:40:28.750Z,8.81
2022-11-05T00:43:16.625Z,8.77
2022-11-05T00:45:48.679Z,8.74
2022-11-05T00:48:35.379Z,8.72
2022-11-05T00:51:03.878Z,8.71
2022-11-05T00:53:34.889Z,8.71
2022-11-05T00:56:04.000Z,8.71
2022-11-05T00:58:33.078Z,8.72
2022-11-05T01:01:02.974Z,8.72
2022-11-05T01:03:33.454Z,8.71
2022-11-05T01:06:09.775Z,8.70
2022-11-05T01:08:39.893Z,8.67
2022-11-05T01:11:11.689Z,8.64
2022-11-05T01:13:41.837Z,8.60
2022-11-05T01:16:10.780Z,8.59
2022-11-05T01:18:39.279Z,8.59
2022-11-05T01:21:16.646Z,8.61
2022-11-05T01:23:49.864Z,8.63
2022-11-05T01:26:18.619Z,8.65
2022-11-05T01:28:51.509Z,8.66
2022-11-05T01:31:20.878Z,8.64
2022-11-05T01:33:53.701Z,8.64
2022-11-05T01:36:22.217Z,8.60
2022-11-05T01:38:50.505Z,8.57
2022-11-05T01:41:18.761Z,8.56
2022-11-05T01:43:51.151Z,8.57
2022-11-05T01:46:23.647Z,8.58
2022-11-05T01:49:00.088Z,8.59
2022-11-05T01:51:32.244Z,8.60
2022-11-05T01:54:04.993Z,8.60
2022-11-05T01:56:36.753Z,8.61
2022-11-05T01:59:11.172Z,8.59
2022-11-05T02:01:40.887Z,8.58
2022-11-05T02:04:14.479Z,8.59
2022-11-05T02:06:45.761Z,8.60
2022-11-05T02:09:19.822Z,8.62
2022-11-05T02:11:50.898Z,8.64
2022-11-05T02:14:20.120Z,8.65
2022-11-05T02:16:58.805Z,8.64
2022-11-05T02:19:50.142Z,8.61
2022-11-05T02:22:49.995Z,8.59
2022-11-05T02:25:38.414Z,8.57
2022-11-05T02:28:17.213Z,8.55
2022-11-05T02:30:50.351Z,8.54
2022-11-05T02:33:39.016Z,8.53
2022-11-05T02:36:28.123Z,8.55
2022-11-05T02:39:07.159Z,8.57
2022-11-05T02:41:43.312Z,8.58
2022-11-05T02:44:20.257Z,8.55
2022-11-05T02:46:57.880Z,8.53
2022-11-05T02:49:39.103Z,8.51
2022-11-05T02:52:19.768Z,8.49
2022-11-05T02:54:58.720Z,8.49
2022-11-05T02:57:29.601Z,8.48
2022-11-05T03:00:07.406Z,8.47
2022-11-05T03:02:37.892Z,8.49
2022-11-05T03:05:08.472Z,8.52
2022-11-05T03:07:44.963Z,8.54
2022-11-05T03:10:26.299Z,8.54
2022-11-05T03:13:07.984Z,8.52
2022-11-05T03:15:50.516Z,8.48
2022-11-05T03:18:26.276Z,8.45
2022-11-05T03:21:03.779Z,8.42
2022-11-05T03:23:40.324Z,8.41
2022-11-05T03:26:16.910Z,8.39
2022-11-05T03:28:50.330Z,8.42
2022-11-05T03:31:22.063Z,8.44
2022-11-05T03:33:55.465Z,8.47
2022-11-05T03:36:27.319Z,8.49
2022-11-05T03:38:59.085Z,8.53
2022-11-05T03:41:29.351Z,8.53
2022-11-05T03:44:09.942Z,8.53
2022-11-05T03:46:44.111Z,8.49
2022-11-05T03:49:17.417Z,8.47
2022-11-05T03:51:53.889Z,8.43
2022-11-05T03:54:23.428Z,8.43
2022-11-05T03:57:02.085Z,8.43
2022-11-05T03:59:30.448Z,8.45
2022-11-05T04:02:02.371Z,8.49
2022-11-05T04:04:31.015Z,8.52
2022-11-05T04:07:17.916Z,8.55
2022-11-05T04:10:10.399Z,8.55
2022-11-05T04:12:59.630Z,8.53
2022-11-05T04:15:29.736Z,8.48
2022-11-05T04:17:58.490Z,8.44
2022-11-05T04:20:45.939Z,8.43
2022-11-05T04:23:32.663Z,8.39
2022-11-05T04:26:00.964Z,8.36
2022-11-05T04:28:53.531Z,8.37
2022-11-05T04:31:22.683Z,8.41
2022-11-05T04:33:52.652Z,8.45
2022-11-05T04:36:20.964Z,8.48
2022-11-05T04:38:52.239Z,8.52
2022-11-05T04:41:21.436Z,8.55
2022-11-05T04:43:53.051Z,8.54
2022-11-05T04:46:24.957Z,8.53
2022-11-05T04:48:59.770Z,8.52
2022-11-05T04:51:29.405Z,8.49
2022-11-05T04:53:58.012Z,8.44
2022-11-05T04:56:26.451Z,8.41
2022-11-05T04:58:55.378Z,8.39
2022-11-05T05:01:26.524Z,8.37
2022-11-05T05:03:55.387Z,8.35
2022-11-05T05:06:23.711Z,8.32
2022-11-05T05:08:52.353Z,8.29
2022-11-05T05:11:21.939Z,8.26
2022-11-05T05:13:51.919Z,8.21
2022-11-05T05:16:22.638Z,8.18
2022-11-05T05:18:52.835Z,8.15
2022-11-05T05:21:41.825Z,8.12
2022-11-05T05:24:13.181Z,8.07
2022-11-05T05:26:46.661Z,8.03
2022-11-05T05:29:18.724Z,8.03
2022-11-05T05:31:47.420Z,8.02
2022-11-05T05:34:16.944Z,8.04
2022-11-05T05:36:45.372Z,8.05
2022-11-05T05:39:14.067Z,8.03
2022-11-05T05:41:44.039Z,8.01
2022-11-05T05:44:12.792Z,7.96
2022-11-05T05:46:41.398Z,7.94
2022-11-05T05:49:12.503Z,7.94
2022-11-05T05:51:41.491Z,7.94
2022-11-05T05:54:12.343Z,7.93
2022-11-05T05:56:42.254Z,7.96
2022-11-05T05:59:11.374Z,8.00
2022-11-05T06:01:42.276Z,8.00
2022-11-05T06:04:11.679Z,8.00
2022-11-05T06:06:41.900Z,8.01
2022-11-05T06:09:10.526Z,8.00
2022-11-05T06:11:39.206Z,7.98
2022-11-05T06:14:11.068Z,7.95
2022-11-05T06:16:42.526Z,7.93
2022-11-05T06:19:12.778Z,7.90
2022-11-05T06:21:45.317Z,7.89
2022-11-05T06:24:14.316Z,7.86
2022-11-05T06:26:44.684Z,7.86
2022-11-05T06:29:17.181Z,7.85
2022-11-05T06:31:47.209Z,7.88
2022-11-05T06:34:18.775Z,7.92
2022-11-05T06:36:48.930Z,7.95
2022-11-05T06:39:17.660Z,7.97
2022-11-05T06:42:16.729Z,7.99
2022-11-05T06:44:37.883Z,7.99
2022-11-05T06:47:14.189Z,7.97
2022-11-05T06:49:45.436Z,7.95
2022-11-05T06:52:16.717Z,7.95
2022-11-05T06:54:45.822Z,7.94
2022-11-05T06:57:15.122Z,7.95
2022-11-05T06:59:44.413Z,7.98
2022-11-05T07:02:17.417Z,8.00
2022-11-05T07:04:46.645Z,8.02
2022-11-05T07:07:16.480Z,8.09
2022-11-05T07:09:45.052Z,8.12
2022-11-05T07:12:14.030Z,8.14
2022-11-05T07:14:42.487Z,8.12
2022-11-05T07:17:11.274Z,8.12
2022-11-05T07:19:40.081Z,8.09
2022-11-05T07:22:08.499Z,8.08
2022-11-05T07:24:36.939Z,8.09
2022-11-05T07:27:09.054Z,8.10
2022-11-05T07:29:37.778Z,8.10
2022-11-05T07:32:06.937Z,8.14
2022-11-05T07:34:35.754Z,8.19
2022-11-05T07:37:04.222Z,8.21
2022-11-05T07:39:32.983Z,8.24
2022-11-05T07:42:01.315Z,8.28
2022-11-05T07:44:33.849Z,8.30
2022-11-05T07:47:02.085Z,8.33
2022-11-05T07:49:30.596Z,8.35
2022-11-05T07:51:59.301Z,8.37
2022-11-05T07:54:30.392Z,8.41
2022-11-05T07:57:00.866Z,8.41
2022-11-05T07:59:29.724Z,8.39
2022-11-05T08:01:58.949Z,8.38
2022-11-05T08:04:28.504Z,8.40
2022-11-05T08:06:56.976Z,8.38
2022-11-05T08:09:25.481Z,8.37
2022-11-05T08:11:57.366Z,8.35
2022-11-05T08:14:28.402Z,8.35
2022-11-05T08:16:58.974Z,8.35
2022-11-05T08:19:27.481Z,8.38
2022-11-05T08:21:58.641Z,8.40
2022-11-05T08:24:27.404Z,8.46
2022-11-05T08:26:55.749Z,8.53
2022-11-05T08:29:24.370Z,8.54
2022-11-05T08:31:53.082Z,8.55
2022-11-05T08:34:21.453Z,8.55
2022-11-05T08:36:52.756Z,8.54
2022-11-05T08:39:21.208Z,8.51
2022-11-05T08:41:50.195Z,8.52
2022-11-05T08:44:18.528Z,8.55
2022-11-05T08:46:46.988Z,8.61
2022-11-05T08:49:16.167Z,8.65
2022-11-05T08:51:44.720Z,8.71
2022-11-05T08:54:13.699Z,8.80
2022-11-05T08:56:41.977Z,8.85
2022-11-05T08:59:10.494Z,8.84
2022-11-05T09:01:39.004Z,8.82
2022-11-05T09:04:07.942Z,8.82
2022-11-05T09:06:37.066Z,8.78
2022-11-05T09:09:05.338Z,8.77
2022-11-05T09:12:05.259Z,8.80
2022-11-05T09:14:21.984Z,8.84
2022-11-05T09:16:50.915Z,8.86
2022-11-05T09:19:19.348Z,8.89
2022-11-05T09:21:49.029Z,8.93
2022-11-05T09:24:20.175Z,8.92
2022-11-05T09:26:52.257Z,8.93
2022-11-05T09:29:20.913Z,8.94
2022-11-05T09:31:55.023Z,8.94
2022-11-05T09:34:25.871Z,9.00
2022-11-05T09:36:58.531Z,9.05
2022-11-05T09:39:27.324Z,9.09
2022-11-05T09:42:02.149Z,9.12
2022-11-05T09:44:37.583Z,9.14
2022-11-05T09:47:13.261Z,9.12
2022-11-05T09:49:47.674Z,9.10
2022-11-05T09:52:21.425Z,9.10
2022-11-05T09:54:50.984Z,9.11
2022-11-05T09:57:25.527Z,9.13
2022-11-05T09:59:56.646Z,9.16
2022-11-05T10:02:28.182Z,9.16
2022-11-05T10:05:03.577Z,9.17
2022-11-05T10:07:42.685Z,9.18
2022-11-05T10:10:25.811Z,9.16
2022-11-05T10:12:58.490Z,9.15
2022-11-05T10:15:30.563Z,9.16
2022-11-05T10:18:03.149Z,9.20
2022-11-05T10:20:34.489Z,9.25
2022-11-05T10:23:11.059Z,9.28
2022-11-05T10:25:44.047Z,9.31
2022-11-05T10:28:16.826Z,9.34
2022-11-05T10:30:46.561Z,9.35
2022-11-05T10:33:28.327Z,9.33
2022-11-05T10:36:02.794Z,9.31
2022-11-05T10:38:31.287Z,9.32
2022-11-05T10:41:18.385Z,9.34
2022-11-05T10:43:50.934Z,9.37
2022-11-05T10:46:38.054Z,9.43
2022-11-05T10:49:22.244Z,9.51
2022-11-05T10:51:56.517Z,9.56
2022-11-05T10:54:33.397Z,9.58
2022-11-05T10:57:21.645Z,9.60
2022-11-05T11:00:02.258Z,9.61
2022-11-05T11:02:30.678Z,9.57
2022-11-05T11:04:59.375Z,9.52
2022-11-05T11:07:27.756Z,9.50
2022-11-05T11:09:56.099Z,9.47
2022-11-05T11:12:28.709Z,9.46
2022-11-05T11:15:12.864Z,9.47
2022-11-05T11:17:41.266Z,9.48
2022-11-05T11:20:23.769Z,9.50
2022-11-05T11:23:04.979Z,9.57
2022-11-05T11:25:44.873Z,9.69
2022-11-05T11:28:19.602Z,9.72
2022-11-05T11:30:52.761Z,9.73
2022-11-05T11:33:25.585Z,9.72
2022-11-05T11:35:54.631Z,9.75
2022-11-05T11:38:24.353Z,9.79
2022-11-05T11:41:01.921Z,9.80
2022-11-05T11:43:34.245Z,9.81
2022-11-05T11:46:08.798Z,9.83
2022-11-05T11:48:41.221Z,9.84
2022-11-05T11:51:29.785Z,9.83
2022-11-05T11:53:59.532Z,9.83
2022-11-05T11:56:32.014Z,9.80
2022-11-05T11:59:11.559Z,9.78
2022-11-05T12:02:06.883Z,9.72
2022-11-05T12:04:53.969Z,9.70
2022-11-05T12:07:36.386Z,9.72
2022-11-05T12:10:27.496Z,9.81
2022-11-05T12:13:14.461Z,9.83
2022-11-05T12:15:49.566Z,9.86
2022-11-05T12:18:25.517Z,9.92
2022-11-05T12:21:07.385Z,9.96
2022-11-05T12:23:53.200Z,9.94
2022-11-05T12:26:38.672Z,9.94
2022-11-05T12:29:32.867Z,9.94
2022-11-05T12:32:37.233Z,9.92
2022-11-05T12:35:18.068Z,9.92
2022-11-05T12:37:55.345Z,9.90
2022-11-05T12:40:43.699Z,9.87
2022-11-05T12:43:19.751Z,9.83
2022-11-05T12:45:57.134Z,9.80
2022-11-05T12:48:51.915Z,9.82
2022-11-05T12:51:37.395Z,9.91
2022-11-05T12:54:20.736Z,9.99
2022-11-05T12:56:53.102Z,10.03
2022-11-05T12:59:28.434Z,10.03
2022-11-05T13:02:02.127Z,10.02
2022-11-05T13:04:37.687Z,10.02
2022-11-05T13:07:10.889Z,9.99
2022-11-05T13:09:45.111Z,9.93
2022-11-05T13:12:16.699Z,9.92
2022-11-05T13:14:50.779Z,9.94
2022-11-05T13:17:22.141Z,9.98
2022-11-05T13:20:21.095Z,10.02
2022-11-05T13:23:01.478Z,9.93
2022-11-05T13:25:42.598Z,9.94
2022-11-05T13:28:20.333Z,9.97
2022-11-05T13:30:56.215Z,10.02
2022-11-05T13:33:36.072Z,10.06
2022-11-05T13:36:32.711Z,10.04
2022-11-05T13:39:12.858Z,9.94
2022-11-05T13:42:02.026Z,9.88
2022-11-05T13:44:57.534Z,9.88
2022-11-05T13:47:51.322Z,9.90
2022-11-05T13:50:43.041Z,9.88
2022-11-05T13:53:42.788Z,9.84
2022-11-05T13:56:29.078Z,9.83
2022-11-05T13:59:17.116Z,9.88
2022-11-05T14:01:55.100Z,9.91
2022-11-05T14:04:33.402Z,9.93
2022-11-05T14:07:17.697Z,9.87
2022-11-05T14:09:54.953Z,9.76
2022-11-05T14:12:30.711Z,9.66
2022-11-05T14:15:10.620Z,9.60
2022-11-05T14:20:58.308Z,9.70
2022-11-05T14:23:54.594Z,9.66
2022-11-05T14:26:33.397Z,9.63
2022-11-05T14:29:39.750Z,9.60
2022-11-05T14:32:28.850Z,9.58
2022-11-05T14:35:05.242Z,9.56
2022-11-05T14:37:41.458Z,9.56
2022-11-05T14:40:36.438Z,9.55
2022-11-05T14:43:19.063Z,9.58
2022-11-05T14:46:00.761Z,9.57
2022-11-05T14:48:41.234Z,9.61
2022-11-05T14:51:47.084Z,9.65
2022-11-05T14:54:26.691Z,9.61
2022-11-05T14:57:00.562Z,9.54
2022-11-05T14:59:52.353Z,9.46
2022-11-05T15:02:29.065Z,9.38
2022-11-05T15:05:33.641Z,9.35
2022-11-05T15:08:32.029Z,9.41
2022-11-05T15:11:23.165Z,9.51
2022-11-05T15:14:05.648Z,9.56
2022-11-05T15:16:43.753Z,9.56
2022-11-05T15:19:30.061Z,9.55
2022-11-05T15:22:05.704Z,9.56
2022-11-05T15:24:38.334Z,9.52
2022-11-05T15:27:22.230Z,9.47
2022-11-05T15:29:54.724Z,9.42
2022-11-05T15:32:28.326Z,9.41
2022-11-05T15:35:00.218Z,9.44
2022-11-05T15:37:31.950Z,9.51
2022-11-05T15:40:04.009Z,9.52
2022-11-05T15:42:35.860Z,9.53
2022-11-05T15:45:21.870Z,9.51
2022-11-05T15:47:54.156Z,9.42
2022-11-05T15:50:29.068Z,9.34
2022-11-05T15:53:20.596Z,9.28
2022-11-05T15:56:00.968Z,9.29
2022-11-05T15:58:34.974Z,9.38
2022-11-05T16:01:08.133Z,9.47
2022-11-05T16:03:41.758Z,9.53
2022-11-05T16:06:14.439Z,9.55
2022-11-05T16:08:51.696Z,9.54
2022-11-05T16:11:28.796Z,9.46
2022-11-05T16:14:16.411Z,9.37
2022-11-05T16:16:49.835Z,9.37
2022-11-05T16:19:45.062Z,9.40
2022-11-05T16:22:19.003Z,9.42
2022-11-05T16:24:52.952Z,9.48
2022-11-05T16:27:25.261Z,9.53
2022-11-05T16:29:58.651Z,9.53
2022-11-05T16:32:32.350Z,9.53
2022-11-05T16:35:08.621Z,9.54
2022-11-05T16:37:49.145Z,9.55
2022-11-05T16:40:26.666Z,9.54
2022-11-05T16:43:17.723Z,9.53
2022-11-05T16:45:54.308Z,9.53
2022-11-05T16:48:27.441Z,9.57
2022-11-05T16:51:01.428Z,9.60
2022-11-05T16:53:33.817Z,9.55
2022-11-05T16:56:07.580Z,9.47
2022-11-05T16:58:39.644Z,9.41
2022-11-05T17:01:18.581Z,9.34
2022-11-05T17:03:55.637Z,9.30
2022-11-05T17:06:31.249Z,9.22
2022-11-05T17:09:04.096Z,9.17
2022-11-05T17:11:36.415Z,9.15
2022-11-05T17:14:09.270Z,9.13
2022-11-05T17:16:42.157Z,9.13
2022-11-05T17:19:17.031Z,9.13
2022-11-05T17:21:52.056Z,9.12
2022-11-05T17:24:24.296Z,9.14
2022-11-05T17:26:56.662Z,9.15
2022-11-05T17:29:28.673Z,9.18
2022-11-05T17:32:01.432Z,9.20
2022-11-05T17:34:33.271Z,9.18
2022-11-05T17:37:05.456Z,9.17
2022-11-05T17:39:37.355Z,9.19
2022-11-05T17:42:09.275Z,9.18
2022-11-05T17:44:41.013Z,9.17
2022-11-05T17:47:13.246Z,9.22
2022-11-05T17:49:45.116Z,9.24
2022-11-05T17:52:20.912Z,9.28
2022-11-05T17:54:52.957Z,9.35
2022-11-05T17:57:25.327Z,9.42
2022-11-05T17:59:57.207Z,9.44
2022-11-05T18:02:29.971Z,9.44
2022-11-05T18:05:04.292Z,9.39
2022-11-05T18:07:36.982Z,9.35
2022-11-05T18:10:10.949Z,9.37
2022-11-05T18:12:44.286Z,9.39
2022-11-05T18:15:17.427Z,9.40
2022-11-05T18:17:53.070Z,9.38
2022-11-05T18:20:24.969Z,9.36
2022-11-05T18:22:58.369Z,9.36
2022-11-05T18:25:30.136Z,9.33
2022-11-05T18:28:03.141Z,9.34
2022-11-05T18:30:34.948Z,9.29
2022-11-05T18:33:07.961Z,9.23
2022-11-05T18:35:44.913Z,9.17
2022-11-05T18:38:17.133Z,9.09
2022-11-05T18:40:51.553Z,9.01
2022-11-05T18:43:23.544Z,8.92
2022-11-05T18:45:58.654Z,8.86
2022-11-05T18:48:30.923Z,8.81
2022-11-05T18:51:07.535Z,8.76
2022-11-05T18:53:39.954Z,8.72
2022-11-05T18:56:13.178Z,8.70
2022-11-05T18:58:46.057Z,8.68
2022-11-05T19:01:19.629Z,8.67
2022-11-05T19:03:54.697Z,8.66
2022-11-05T19:06:26.991Z,8.64
2022-11-05T19:08:59.283Z,8.60
2022-11-05T19:11:31.514Z,8.56
2022-11-05T19:14:03.605Z,8.55
2022-11-05T19:16:36.796Z,8.55
2022-11-05T19:19:08.927Z,8.54
2022-11-05T19:21:40.720Z,8.54
2022-11-05T19:24:17.049Z,8.55
2022-11-05T19:26:51.615Z,8.56
2022-11-05T19:29:24.261Z,8.57
2022-11-05T19:31:56.171Z,8.56
2022-11-05T19:34:30.075Z,8.56
2022-11-05T19:37:07.285Z,8.57
2022-11-05T19:39:40.679Z,8.58
2022-11-05T19:42:12.693Z,8.57
2022-11-05T19:44:45.328Z,8.59
2022-11-05T19:47:17.717Z,8.61
2022-11-05T19:49:50.987Z,8.62
2022-11-05T19:52:22.822Z,8.61
2022-11-05T19:54:55.090Z,8.60
2022-11-05T19:57:29.756Z,8.60
2022-11-05T20:00:02.001Z,8.60
2022-11-05T20:02:49.011Z,8.60
2022-11-05T20:05:21.440Z,8.63
2022-11-05T20:07:56.681Z,8.65
2022-11-05T20:10:28.893Z,8.69
2022-11-05T20:13:02.370Z,8.72
2022-11-05T20:15:37.880Z,8.75
2022-11-05T20:18:10.033Z,8.76
2022-11-05T20:20:42.840Z,8.73
2022-11-05T20:23:20.540Z,8.73
2022-11-05T20:25:54.721Z,8.74
2022-11-05T20:28:26.771Z,8.73
2022-11-05T20:31:09.010Z,8.76
2022-11-05T20:33:41.700Z,8.82
2022-11-05T20:36:17.184Z,8.84
2022-11-05T20:38:55.388Z,8.84
2022-11-05T20:41:28.046Z,8.84
2022-11-05T20:44:00.533Z,8.86
2022-11-05T20:46:35.416Z,8.92
2022-11-05T20:49:07.281Z,8.94
2022-11-05T20:51:39.592Z,8.93
2022-11-05T20:54:11.973Z,8.94
2022-11-05T20:56:44.656Z,8.92
2022-11-05T20:59:16.602Z,8.94
2022-11-05T21:01:52.704Z,8.97
2022-11-05T21:04:24.776Z,8.99
2022-11-05T21:06:56.754Z,9.01
2022-11-05T21:09:28.480Z,9.07
2022-11-05T21:12:14.826Z,9.11
2022-11-05T21:14:47.790Z,9.12
2022-11-05T21:17:21.450Z,9.14
2022-11-05T21:19:54.646Z,9.12
2022-11-05T21:22:26.660Z,9.06
2022-11-05T21:24:58.535Z,9.01
2022-11-05T21:27:30.510Z,9.01
2022-11-05T21:30:02.416Z,9.04
2022-11-05T21:32:35.062Z,9.10
2022-11-05T21:35:07.949Z,9.13
2022-11-05T21:37:40.165Z,9.14
2022-11-05T21:40:14.418Z,9.15
2022-11-05T21:42:46.462Z,9.16
2022-11-05T21:45:18.421Z,9.13
2022-11-05T21:47:52.779Z,9.06
2022-11-05T21:50:45.434Z,9.02
2022-11-05T21:53:36.440Z,8.98
2022-11-05T21:56:34.536Z,8.96
2022-11-05T21:59:24.658Z,9.02
2022-11-05T22:02:02.880Z,9.12
2022-11-05T22:04:37.165Z,9.19
2022-11-05T22:07:10.470Z,9.24
2022-11-05T22:09:42.558Z,9.26
2022-11-05T22:12:15.097Z,9.23
2022-11-05T22:14:47.312Z,9.24
2022-11-05T22:17:21.261Z,9.16
2022-11-05T22:19:56.260Z,9.12
2022-11-05T22:22:28.665Z,9.07
2022-11-05T22:25:02.172Z,9.05
2022-11-05T22:27:34.073Z,9.04
2022-11-05T22:30:09.427Z,9.03
2022-11-05T22:32:41.501Z,8.99
2022-11-05T22:35:13.730Z,8.99
2022-11-05T22:37:46.487Z,8.97
2022-11-05T22:40:23.839Z,8.94
2022-11-05T22:42:56.444Z,8.89
2022-11-05T22:45:37.304Z,8.87
2022-11-05T22:48:09.960Z,8.86
2022-11-05T22:50:42.538Z,8.87
2022-11-05T22:53:14.352Z,8.84
2022-11-05T22:55:51.037Z,8.80
2022-11-05T22:58:22.835Z,8.76
2022-11-05T23:00:55.363Z,8.68
2022-11-05T23:03:31.500Z,8.65
2022-11-05T23:06:30.922Z,8.62
2022-11-05T23:09:21.702Z,8.59
2022-11-05T23:11:57.523Z,8.60
2022-11-05T23:14:33.437Z,8.59
2022-11-05T23:17:23.236Z,8.58
2022-11-05T23:20:12.818Z,8.64
2022-11-05T23:23:04.855Z,8.61
2022-11-05T23:25:37.202Z,8.53
2022-11-05T23:28:11.344Z,8.48
2022-11-05T23:31:00.247Z,8.43
2022-11-05T23:33:36.076Z,8.40
2022-11-05T23:36:30.696Z,8.36
2022-11-05T23:39:06.166Z,8.32
2022-11-05T23:41:56.904Z,8.29
2022-11-05T23:44:49.037Z,8.23
2022-11-05T23:47:46.779Z,8.19
2022-11-05T23:50:21.335Z,8.20
2022-11-05T23:52:58.549Z,8.23
2022-11-05T23:55:31.300Z,8.22
2022-11-05T23:58:03.391Z,8.22
